sensor_id;sensor_type;location;lat;lon;timestamp;temperature;humidity
39951;DHT22;25629;51.444;-2.606;2023-03-14T00:01:40;8.20;99.90
39951;DHT22;25629;51.444;-2.606;2023-03-14T00:04:05;8.20;99.80
39951;DHT22;25629;51.444;-2.606;2023-03-14T00:06:31;8.10;99.90
39951;DHT22;25629;51.444;-2.606;2023-03-14T00:08:57;8.10;99.90
39951;DHT22;25629;51.444;-2.606;2023-03-14T00:11:22;8.10;99.60
39951;DHT22;25629;51.444;-2.606;2023-03-14T00:13:49;8.10;99.90
39951;DHT22;25629;51.444;-2.606;2023-03-14T00:16:16;8.00;99.10
39951;DHT22;25629;51.444;-2.606;2023-03-14T00:18:42;7.90;96.30
39951;DHT22;25629;51.444;-2.606;2023-03-14T00:21:09;7.80;94.90
39951;DHT22;25629;51.444;-2.606;2023-03-14T00:23:37;7.80;95.70
39951;DHT22;25629;51.444;-2.606;2023-03-14T00:26:15;7.70;87.20
39951;DHT22;25629;51.444;-2.606;2023-03-14T00:28:41;7.70;80.10
39951;DHT22;25629;51.444;-2.606;2023-03-14T00:31:09;7.70;80.00
39951;DHT22;25629;51.444;-2.606;2023-03-14T00:33:35;7.70;81.40
39951;DHT22;25629;51.444;-2.606;2023-03-14T00:36:06;7.60;78.10
39951;DHT22;25629;51.444;-2.606;2023-03-14T00:38:34;7.60;71.90
39951;DHT22;25629;51.444;-2.606;2023-03-14T00:41:08;7.50;68.40
39951;DHT22;25629;51.444;-2.606;2023-03-14T00:43:34;7.50;75.10
39951;DHT22;25629;51.444;-2.606;2023-03-14T00:46:00;7.50;68.00
39951;DHT22;25629;51.444;-2.606;2023-03-14T00:48:26;7.40;62.50
39951;DHT22;25629;51.444;-2.606;2023-03-14T00:50:52;7.40;64.60
39951;DHT22;25629;51.444;-2.606;2023-03-14T00:53:18;7.40;60.20
39951;DHT22;25629;51.444;-2.606;2023-03-14T00:55:44;7.30;59.70
39951;DHT22;25629;51.444;-2.606;2023-03-14T00:58:11;7.30;66.10
39951;DHT22;25629;51.444;-2.606;2023-03-14T01:00:37;7.30;64.30
39951;DHT22;25629;51.444;-2.606;2023-03-14T01:03:03;7.20;65.30
39951;DHT22;25629;51.444;-2.606;2023-03-14T01:05:29;7.20;68.70
39951;DHT22;25629;51.444;-2.606;2023-03-14T01:07:54;7.20;65.40
39951;DHT22;25629;51.444;-2.606;2023-03-14T01:10:20;7.20;62.40
39951;DHT22;25629;51.444;-2.606;2023-03-14T01:12:46;7.10;60.30
39951;DHT22;25629;51.444;-2.606;2023-03-14T01:15:12;7.20;48.90
39951;DHT22;25629;51.444;-2.606;2023-03-14T01:17:37;7.20;55.00
39951;DHT22;25629;51.444;-2.606;2023-03-14T01:20:05;7.20;38.10
39951;DHT22;25629;51.444;-2.606;2023-03-14T01:22:35;7.10;36.40
39951;DHT22;25629;51.444;-2.606;2023-03-14T01:25:01;7.20;40.00
39951;DHT22;25629;51.444;-2.606;2023-03-14T01:27:26;7.20;41.70
39951;DHT22;25629;51.444;-2.606;2023-03-14T01:29:52;7.10;42.50
39951;DHT22;25629;51.444;-2.606;2023-03-14T01:32:18;7.10;42.70
39951;DHT22;25629;51.444;-2.606;2023-03-14T01:34:44;7.10;44.10
39951;DHT22;25629;51.444;-2.606;2023-03-14T01:37:09;7.10;45.30
39951;DHT22;25629;51.444;-2.606;2023-03-14T01:39:37;7.10;45.10
39951;DHT22;25629;51.444;-2.606;2023-03-14T01:42:03;7.10;45.70
39951;DHT22;25629;51.444;-2.606;2023-03-14T01:44:47;7.00;48.00
39951;DHT22;25629;51.444;-2.606;2023-03-14T01:47:13;7.00;52.50
39951;DHT22;25629;51.444;-2.606;2023-03-14T01:49:39;6.90;50.30
39951;DHT22;25629;51.444;-2.606;2023-03-14T01:52:16;6.90;54.90
39951;DHT22;25629;51.444;-2.606;2023-03-14T01:54:47;6.90;58.40
39951;DHT22;25629;51.444;-2.606;2023-03-14T01:57:14;6.90;60.80
39951;DHT22;25629;51.444;-2.606;2023-03-14T01:59:46;6.90;58.70
39951;DHT22;25629;51.444;-2.606;2023-03-14T02:02:12;6.90;60.70
39951;DHT22;25629;51.444;-2.606;2023-03-14T02:04:40;6.90;61.50
39951;DHT22;25629;51.444;-2.606;2023-03-14T02:09:56;6.80;62.90
39951;DHT22;25629;51.444;-2.606;2023-03-14T02:12:24;6.70;63.00
39951;DHT22;25629;51.444;-2.606;2023-03-14T02:14:50;6.70;62.30
39951;DHT22;25629;51.444;-2.606;2023-03-14T02:17:17;6.70;58.80
39951;DHT22;25629;51.444;-2.606;2023-03-14T02:22:13;6.70;58.50
39951;DHT22;25629;51.444;-2.606;2023-03-14T02:27:27;6.70;60.40
39951;DHT22;25629;51.444;-2.606;2023-03-14T02:30:00;6.60;59.30
39951;DHT22;25629;51.444;-2.606;2023-03-14T02:32:32;6.60;59.70
39951;DHT22;25629;51.444;-2.606;2023-03-14T02:35:01;6.60;58.90
39951;DHT22;25629;51.444;-2.606;2023-03-14T02:40:12;6.60;57.80
39951;DHT22;25629;51.444;-2.606;2023-03-14T02:42:38;6.60;58.40
39951;DHT22;25629;51.444;-2.606;2023-03-14T02:47:39;6.60;63.80
39951;DHT22;25629;51.444;-2.606;2023-03-14T02:50:14;6.60;61.70
39951;DHT22;25629;51.444;-2.606;2023-03-14T02:52:41;6.60;61.90
39951;DHT22;25629;51.444;-2.606;2023-03-14T02:55:07;6.60;59.40
39951;DHT22;25629;51.444;-2.606;2023-03-14T02:57:33;6.60;58.70
39951;DHT22;25629;51.444;-2.606;2023-03-14T02:59:59;6.60;59.20
39951;DHT22;25629;51.444;-2.606;2023-03-14T03:02:26;6.50;57.90
39951;DHT22;25629;51.444;-2.606;2023-03-14T03:04:52;6.60;56.30
39951;DHT22;25629;51.444;-2.606;2023-03-14T03:07:18;6.60;55.70
39951;DHT22;25629;51.444;-2.606;2023-03-14T03:09:44;6.60;53.70
39951;DHT22;25629;51.444;-2.606;2023-03-14T03:12:10;6.60;54.40
39951;DHT22;25629;51.444;-2.606;2023-03-14T03:14:35;6.70;48.50
39951;DHT22;25629;51.444;-2.606;2023-03-14T03:17:03;6.70;51.80
39951;DHT22;25629;51.444;-2.606;2023-03-14T03:19:29;6.70;52.00
39951;DHT22;25629;51.444;-2.606;2023-03-14T03:21:55;6.80;51.40
39951;DHT22;25629;51.444;-2.606;2023-03-14T03:24:20;6.80;53.50
39951;DHT22;25629;51.444;-2.606;2023-03-14T03:26:46;6.80;46.60
39951;DHT22;25629;51.444;-2.606;2023-03-14T03:29:12;6.80;50.10
39951;DHT22;25629;51.444;-2.606;2023-03-14T03:31:38;6.80;50.00
39951;DHT22;25629;51.444;-2.606;2023-03-14T03:34:04;6.90;46.70
39951;DHT22;25629;51.444;-2.606;2023-03-14T03:36:29;6.90;43.80
39951;DHT22;25629;51.444;-2.606;2023-03-14T03:38:55;6.90;43.40
39951;DHT22;25629;51.444;-2.606;2023-03-14T03:41:21;6.80;45.00
39951;DHT22;25629;51.444;-2.606;2023-03-14T03:43:47;6.90;41.90
39951;DHT22;25629;51.444;-2.606;2023-03-14T03:46:12;6.90;44.30
39951;DHT22;25629;51.444;-2.606;2023-03-14T03:48:38;6.90;45.30
39951;DHT22;25629;51.444;-2.606;2023-03-14T03:51:04;6.90;43.00
39951;DHT22;25629;51.444;-2.606;2023-03-14T03:53:30;6.90;43.90
39951;DHT22;25629;51.444;-2.606;2023-03-14T03:55:55;6.80;44.20
39951;DHT22;25629;51.444;-2.606;2023-03-14T03:58:21;6.80;43.30
39951;DHT22;25629;51.444;-2.606;2023-03-14T04:00:47;6.90;47.10
39951;DHT22;25629;51.444;-2.606;2023-03-14T04:03:12;6.80;46.70
39951;DHT22;25629;51.444;-2.606;2023-03-14T04:05:38;6.80;48.00
39951;DHT22;25629;51.444;-2.606;2023-03-14T04:08:04;6.70;47.80
39951;DHT22;25629;51.444;-2.606;2023-03-14T04:10:34;6.80;46.60
39951;DHT22;25629;51.444;-2.606;2023-03-14T04:13:00;6.80;40.50
39951;DHT22;25629;51.444;-2.606;2023-03-14T04:15:25;6.80;45.60
39951;DHT22;25629;51.444;-2.606;2023-03-14T04:17:51;6.70;41.80
39951;DHT22;25629;51.444;-2.606;2023-03-14T04:20:21;6.60;47.40
39951;DHT22;25629;51.444;-2.606;2023-03-14T04:22:46;6.60;48.10
39951;DHT22;25629;51.444;-2.606;2023-03-14T04:25:12;6.60;49.20
39951;DHT22;25629;51.444;-2.606;2023-03-14T04:27:38;6.50;47.40
39951;DHT22;25629;51.444;-2.606;2023-03-14T04:30:04;6.50;49.10
39951;DHT22;25629;51.444;-2.606;2023-03-14T04:32:30;6.50;51.10
39951;DHT22;25629;51.444;-2.606;2023-03-14T04:34:55;6.50;50.30
39951;DHT22;25629;51.444;-2.606;2023-03-14T04:37:21;6.50;50.30
39951;DHT22;25629;51.444;-2.606;2023-03-14T04:39:47;6.40;48.30
39951;DHT22;25629;51.444;-2.606;2023-03-14T04:42:12;6.50;51.70
39951;DHT22;25629;51.444;-2.606;2023-03-14T04:44:38;6.50;50.00
39951;DHT22;25629;51.444;-2.606;2023-03-14T04:47:04;6.40;53.70
39951;DHT22;25629;51.444;-2.606;2023-03-14T04:49:29;6.50;52.70
39951;DHT22;25629;51.444;-2.606;2023-03-14T04:51:55;6.50;51.90
39951;DHT22;25629;51.444;-2.606;2023-03-14T04:54:21;6.50;54.50
39951;DHT22;25629;51.444;-2.606;2023-03-14T04:56:46;6.50;56.00
39951;DHT22;25629;51.444;-2.606;2023-03-14T04:59:12;6.60;58.00
39951;DHT22;25629;51.444;-2.606;2023-03-14T05:01:38;6.60;58.60
39951;DHT22;25629;51.444;-2.606;2023-03-14T05:04:03;6.70;55.20
39951;DHT22;25629;51.444;-2.606;2023-03-14T05:06:29;6.60;54.30
39951;DHT22;25629;51.444;-2.606;2023-03-14T05:08:55;6.60;55.40
39951;DHT22;25629;51.444;-2.606;2023-03-14T05:11:20;6.50;58.40
39951;DHT22;25629;51.444;-2.606;2023-03-14T05:13:46;6.40;60.80
39951;DHT22;25629;51.444;-2.606;2023-03-14T05:16:12;6.40;63.60
39951;DHT22;25629;51.444;-2.606;2023-03-14T05:18:38;6.30;66.00
39951;DHT22;25629;51.444;-2.606;2023-03-14T05:21:04;6.30;67.20
39951;DHT22;25629;51.444;-2.606;2023-03-14T05:23:30;6.20;68.90
39951;DHT22;25629;51.444;-2.606;2023-03-14T05:25:55;6.20;70.90
39951;DHT22;25629;51.444;-2.606;2023-03-14T05:28:21;6.20;71.20
39951;DHT22;25629;51.444;-2.606;2023-03-14T05:30:47;6.20;71.20
39951;DHT22;25629;51.444;-2.606;2023-03-14T05:33:13;6.10;72.80
39951;DHT22;25629;51.444;-2.606;2023-03-14T05:35:39;6.10;73.90
39951;DHT22;25629;51.444;-2.606;2023-03-14T05:38:05;6.00;71.90
39951;DHT22;25629;51.444;-2.606;2023-03-14T05:40:30;6.00;73.50
39951;DHT22;25629;51.444;-2.606;2023-03-14T05:42:56;6.00;74.80
39951;DHT22;25629;51.444;-2.606;2023-03-14T05:45:22;6.00;72.70
39951;DHT22;25629;51.444;-2.606;2023-03-14T05:47:47;6.00;74.10
39951;DHT22;25629;51.444;-2.606;2023-03-14T05:50:13;5.90;74.40
39951;DHT22;25629;51.444;-2.606;2023-03-14T05:52:38;5.90;76.40
39951;DHT22;25629;51.444;-2.606;2023-03-14T05:55:05;6.00;82.00
39951;DHT22;25629;51.444;-2.606;2023-03-14T05:57:30;6.10;82.60
39951;DHT22;25629;51.444;-2.606;2023-03-14T05:59:56;6.10;83.00
39951;DHT22;25629;51.444;-2.606;2023-03-14T06:02:22;6.00;82.40
39951;DHT22;25629;51.444;-2.606;2023-03-14T06:04:47;6.00;85.90
39951;DHT22;25629;51.444;-2.606;2023-03-14T06:07:13;6.00;87.10
39951;DHT22;25629;51.444;-2.606;2023-03-14T06:09:39;6.00;88.00
39951;DHT22;25629;51.444;-2.606;2023-03-14T06:12:05;6.00;87.80
39951;DHT22;25629;51.444;-2.606;2023-03-14T06:14:31;6.00;88.10
39951;DHT22;25629;51.444;-2.606;2023-03-14T06:16:57;5.90;88.60
39951;DHT22;25629;51.444;-2.606;2023-03-14T06:19:25;5.90;89.80
39951;DHT22;25629;51.444;-2.606;2023-03-14T06:21:51;5.80;91.00
39951;DHT22;25629;51.444;-2.606;2023-03-14T06:24:17;5.80;91.80
39951;DHT22;25629;51.444;-2.606;2023-03-14T06:26:43;5.70;90.50
39951;DHT22;25629;51.444;-2.606;2023-03-14T06:29:08;5.70;90.60
39951;DHT22;25629;51.444;-2.606;2023-03-14T06:31:34;5.70;91.00
39951;DHT22;25629;51.444;-2.606;2023-03-14T06:34:00;5.70;90.70
39951;DHT22;25629;51.444;-2.606;2023-03-14T06:36:26;5.70;91.20
39951;DHT22;25629;51.444;-2.606;2023-03-14T06:38:52;5.70;90.50
39951;DHT22;25629;51.444;-2.606;2023-03-14T06:41:18;5.70;88.70
39951;DHT22;25629;51.444;-2.606;2023-03-14T06:43:43;5.80;89.70
39951;DHT22;25629;51.444;-2.606;2023-03-14T06:46:09;5.80;88.10
39951;DHT22;25629;51.444;-2.606;2023-03-14T06:48:35;5.80;87.50
39951;DHT22;25629;51.444;-2.606;2023-03-14T06:51:01;5.80;87.50
39951;DHT22;25629;51.444;-2.606;2023-03-14T06:53:26;5.80;87.40
39951;DHT22;25629;51.444;-2.606;2023-03-14T06:55:52;5.80;88.10
39951;DHT22;25629;51.444;-2.606;2023-03-14T06:58:18;5.90;88.70
39951;DHT22;25629;51.444;-2.606;2023-03-14T07:00:44;5.90;88.60
39951;DHT22;25629;51.444;-2.606;2023-03-14T07:03:10;5.90;87.00
39951;DHT22;25629;51.444;-2.606;2023-03-14T07:05:36;5.90;87.50
39951;DHT22;25629;51.444;-2.606;2023-03-14T07:08:01;5.90;88.00
39951;DHT22;25629;51.444;-2.606;2023-03-14T07:10:27;5.90;85.70
39951;DHT22;25629;51.444;-2.606;2023-03-14T07:12:53;5.90;86.20
39951;DHT22;25629;51.444;-2.606;2023-03-14T07:15:19;6.00;86.80
39951;DHT22;25629;51.444;-2.606;2023-03-14T07:17:45;6.00;85.50
39951;DHT22;25629;51.444;-2.606;2023-03-14T07:20:13;6.00;84.50
39951;DHT22;25629;51.444;-2.606;2023-03-14T07:22:39;6.00;82.80
39951;DHT22;25629;51.444;-2.606;2023-03-14T07:25:05;6.00;81.70
39951;DHT22;25629;51.444;-2.606;2023-03-14T07:27:31;6.00;79.30
39951;DHT22;25629;51.444;-2.606;2023-03-14T07:29:56;6.00;80.70
39951;DHT22;25629;51.444;-2.606;2023-03-14T07:32:22;6.00;79.90
39951;DHT22;25629;51.444;-2.606;2023-03-14T07:34:48;6.00;78.20
39951;DHT22;25629;51.444;-2.606;2023-03-14T07:37:14;6.00;79.50
39951;DHT22;25629;51.444;-2.606;2023-03-14T07:39:39;6.00;75.40
39951;DHT22;25629;51.444;-2.606;2023-03-14T07:42:05;6.10;76.70
39951;DHT22;25629;51.444;-2.606;2023-03-14T07:44:31;6.00;76.30
39951;DHT22;25629;51.444;-2.606;2023-03-14T07:46:57;6.20;77.30
39951;DHT22;25629;51.444;-2.606;2023-03-14T07:49:22;6.30;77.50
39951;DHT22;25629;51.444;-2.606;2023-03-14T07:51:49;6.50;72.90
39951;DHT22;25629;51.444;-2.606;2023-03-14T07:54:15;6.60;69.90
39951;DHT22;25629;51.444;-2.606;2023-03-14T07:56:40;6.70;68.50
39951;DHT22;25629;51.444;-2.606;2023-03-14T07:59:06;6.80;66.40
39951;DHT22;25629;51.444;-2.606;2023-03-14T08:01:32;6.90;64.20
39951;DHT22;25629;51.444;-2.606;2023-03-14T08:03:58;7.00;58.90
39951;DHT22;25629;51.444;-2.606;2023-03-14T08:06:24;6.90;57.60
39951;DHT22;25629;51.444;-2.606;2023-03-14T08:08:50;7.00;60.90
39951;DHT22;25629;51.444;-2.606;2023-03-14T08:11:15;7.00;58.20
39951;DHT22;25629;51.444;-2.606;2023-03-14T08:13:41;7.00;53.40
39951;DHT22;25629;51.444;-2.606;2023-03-14T08:16:07;6.90;53.60
39951;DHT22;25629;51.444;-2.606;2023-03-14T08:18:33;6.90;59.30
39951;DHT22;25629;51.444;-2.606;2023-03-14T08:20:59;6.90;60.70
39951;DHT22;25629;51.444;-2.606;2023-03-14T08:23:25;6.90;57.00
39951;DHT22;25629;51.444;-2.606;2023-03-14T08:25:51;6.80;56.80
39951;DHT22;25629;51.444;-2.606;2023-03-14T08:28:18;6.90;54.70
39951;DHT22;25629;51.444;-2.606;2023-03-14T08:30:44;6.90;56.60
39951;DHT22;25629;51.444;-2.606;2023-03-14T08:33:10;7.10;55.90
39951;DHT22;25629;51.444;-2.606;2023-03-14T08:35:37;7.20;51.00
39951;DHT22;25629;51.444;-2.606;2023-03-14T08:38:03;7.30;53.20
39951;DHT22;25629;51.444;-2.606;2023-03-14T08:40:29;7.30;46.50
39951;DHT22;25629;51.444;-2.606;2023-03-14T08:42:54;7.30;43.90
39951;DHT22;25629;51.444;-2.606;2023-03-14T08:45:20;7.30;50.10
39951;DHT22;25629;51.444;-2.606;2023-03-14T08:47:46;7.30;48.80
39951;DHT22;25629;51.444;-2.606;2023-03-14T08:50:13;7.30;41.00
39951;DHT22;25629;51.444;-2.606;2023-03-14T08:52:39;7.40;43.50
39951;DHT22;25629;51.444;-2.606;2023-03-14T08:55:07;7.60;45.40
39951;DHT22;25629;51.444;-2.606;2023-03-14T08:57:33;7.80;51.00
39951;DHT22;25629;51.444;-2.606;2023-03-14T08:59:58;7.80;35.40
39951;DHT22;25629;51.444;-2.606;2023-03-14T09:02:25;7.70;32.40
39951;DHT22;25629;51.444;-2.606;2023-03-14T09:04:52;7.90;41.30
39951;DHT22;25629;51.444;-2.606;2023-03-14T09:07:18;8.10;36.60
39951;DHT22;25629;51.444;-2.606;2023-03-14T09:09:44;8.40;21.90
39951;DHT22;25629;51.444;-2.606;2023-03-14T09:12:10;8.70;1.00
39951;DHT22;25629;51.444;-2.606;2023-03-14T09:14:36;8.70;1.00
39951;DHT22;25629;51.444;-2.606;2023-03-14T09:17:03;8.50;1.00
39951;DHT22;25629;51.444;-2.606;2023-03-14T09:19:29;8.40;20.00
39951;DHT22;25629;51.444;-2.606;2023-03-14T09:21:55;8.30;12.70
39951;DHT22;25629;51.444;-2.606;2023-03-14T09:24:20;8.20;7.20
39951;DHT22;25629;51.444;-2.606;2023-03-14T09:26:46;8.30;15.60
39951;DHT22;25629;51.444;-2.606;2023-03-14T09:29:12;8.40;1.00
39951;DHT22;25629;51.444;-2.606;2023-03-14T09:31:38;8.50;6.30
39951;DHT22;25629;51.444;-2.606;2023-03-14T09:34:03;8.50;1.00
39951;DHT22;25629;51.444;-2.606;2023-03-14T09:36:30;8.50;1.00
39951;DHT22;25629;51.444;-2.606;2023-03-14T09:38:55;8.50;1.00
39951;DHT22;25629;51.444;-2.606;2023-03-14T09:41:33;8.50;3.30
39951;DHT22;25629;51.444;-2.606;2023-03-14T09:44:24;8.50;5.20
39951;DHT22;25629;51.444;-2.606;2023-03-14T09:46:53;8.60;1.00
39951;DHT22;25629;51.444;-2.606;2023-03-14T09:49:23;8.60;1.00
39951;DHT22;25629;51.444;-2.606;2023-03-14T09:51:53;8.50;4.30
39951;DHT22;25629;51.444;-2.606;2023-03-14T09:54:42;8.50;9.10
39951;DHT22;25629;51.444;-2.606;2023-03-14T09:57:14;8.50;5.60
39951;DHT22;25629;51.444;-2.606;2023-03-14T09:59:43;8.60;3.80
39951;DHT22;25629;51.444;-2.606;2023-03-14T10:02:21;8.60;1.00
39951;DHT22;25629;51.444;-2.606;2023-03-14T10:04:49;8.70;1.00
39951;DHT22;25629;51.444;-2.606;2023-03-14T10:07:29;8.70;5.70
39951;DHT22;25629;51.444;-2.606;2023-03-14T10:09:55;8.60;1.00
39951;DHT22;25629;51.444;-2.606;2023-03-14T10:12:30;8.70;1.00
39951;DHT22;25629;51.444;-2.606;2023-03-14T10:14:56;8.80;1.00
39951;DHT22;25629;51.444;-2.606;2023-03-14T10:17:21;8.70;1.00
39951;DHT22;25629;51.444;-2.606;2023-03-14T10:20:00;8.70;1.00
39951;DHT22;25629;51.444;-2.606;2023-03-14T10:22:29;9.00;1.00
39951;DHT22;25629;51.444;-2.606;2023-03-14T10:25:01;9.70;1.00
39951;DHT22;25629;51.444;-2.606;2023-03-14T10:27:32;10.10;1.00
39951;DHT22;25629;51.444;-2.606;2023-03-14T10:30:00;10.00;1.00
39951;DHT22;25629;51.444;-2.606;2023-03-14T10:32:37;9.50;99.90
39951;DHT22;25629;51.444;-2.606;2023-03-14T10:35:08;9.00;99.90
39951;DHT22;25629;51.444;-2.606;2023-03-14T10:37:52;8.70;1.00
39951;DHT22;25629;51.444;-2.606;2023-03-14T10:40:24;8.70;1.00
39951;DHT22;25629;51.444;-2.606;2023-03-14T10:42:52;9.10;1.00
39951;DHT22;25629;51.444;-2.606;2023-03-14T10:45:38;9.80;99.90
39951;DHT22;25629;51.444;-2.606;2023-03-14T10:48:23;9.90;99.90
39951;DHT22;25629;51.444;-2.606;2023-03-14T10:53:22;9.20;99.90
39951;DHT22;25629;51.444;-2.606;2023-03-14T10:55:47;9.00;99.90
39951;DHT22;25629;51.444;-2.606;2023-03-14T10:58:23;9.10;99.90
39951;DHT22;25629;51.444;-2.606;2023-03-14T11:06:32;9.90;99.90
39951;DHT22;25629;51.444;-2.606;2023-03-14T11:09:16;10.00;99.90
39951;DHT22;25629;51.444;-2.606;2023-03-14T11:11:47;9.80;1.00
39951;DHT22;25629;51.444;-2.606;2023-03-14T11:16:57;9.60;99.90
39951;DHT22;25629;51.444;-2.606;2023-03-14T11:28:00;12.00;99.90
39951;DHT22;25629;51.444;-2.606;2023-03-14T11:30:46;12.60;99.90
39951;DHT22;25629;51.444;-2.606;2023-03-14T11:33:24;12.90;86.60
39951;DHT22;25629;51.444;-2.606;2023-03-14T11:36:07;13.00;99.90
39951;DHT22;25629;51.444;-2.606;2023-03-14T11:41:14;13.00;99.90
39951;DHT22;25629;51.444;-2.606;2023-03-14T11:43:47;12.20;99.90
39951;DHT22;25629;51.444;-2.606;2023-03-14T11:49:06;11.20;29.00
39951;DHT22;25629;51.444;-2.606;2023-03-14T11:51:38;11.50;99.90
39951;DHT22;25629;51.444;-2.606;2023-03-14T11:54:41;11.90;40.20
39951;DHT22;25629;51.444;-2.606;2023-03-14T11:57:14;12.30;1.00
39951;DHT22;25629;51.444;-2.606;2023-03-14T11:59:52;12.20;99.90
39951;DHT22;25629;51.444;-2.606;2023-03-14T12:07:27;11.70;1.00
39951;DHT22;25629;51.444;-2.606;2023-03-14T12:09:55;11.80;1.00
39951;DHT22;25629;51.444;-2.606;2023-03-14T12:12:24;12.10;1.00
39951;DHT22;25629;51.444;-2.606;2023-03-14T12:14:56;12.40;1.00
39951;DHT22;25629;51.444;-2.606;2023-03-14T12:20:00;13.20;99.90
39951;DHT22;25629;51.444;-2.606;2023-03-14T12:22:27;13.10;99.90
39951;DHT22;25629;51.444;-2.606;2023-03-14T12:30:34;12.20;1.00
39951;DHT22;25629;51.444;-2.606;2023-03-14T12:35:39;12.90;1.00
39951;DHT22;25629;51.444;-2.606;2023-03-14T12:38:13;13.30;1.00
39951;DHT22;25629;51.444;-2.606;2023-03-14T12:43:33;13.40;1.00
39951;DHT22;25629;51.444;-2.606;2023-03-14T12:48:35;13.70;1.00
39951;DHT22;25629;51.444;-2.606;2023-03-14T12:51:11;13.70;1.00
39951;DHT22;25629;51.444;-2.606;2023-03-14T13:01:36;12.60;1.00
39951;DHT22;25629;51.444;-2.606;2023-03-14T13:04:11;12.30;1.00
39951;DHT22;25629;51.444;-2.606;2023-03-14T13:07:01;12.20;1.00
39951;DHT22;25629;51.444;-2.606;2023-03-14T13:11:55;12.30;1.00
39951;DHT22;25629;51.444;-2.606;2023-03-14T13:14:22;12.50;1.00
39951;DHT22;25629;51.444;-2.606;2023-03-14T13:16:49;13.20;1.00
39951;DHT22;25629;51.444;-2.606;2023-03-14T13:19:21;13.90;1.00
39951;DHT22;25629;51.444;-2.606;2023-03-14T13:21:50;14.50;1.00
39951;DHT22;25629;51.444;-2.606;2023-03-14T13:24:27;14.80;1.00
39951;DHT22;25629;51.444;-2.606;2023-03-14T13:26:56;15.40;1.00
39951;DHT22;25629;51.444;-2.606;2023-03-14T13:29:30;16.10;1.00
39951;DHT22;25629;51.444;-2.606;2023-03-14T13:32:13;16.10;1.00
39951;DHT22;25629;51.444;-2.606;2023-03-14T13:34:42;15.90;1.00
39951;DHT22;25629;51.444;-2.606;2023-03-14T13:37:22;16.10;1.00
39951;DHT22;25629;51.444;-2.606;2023-03-14T13:39:55;16.60;1.00
39951;DHT22;25629;51.444;-2.606;2023-03-14T13:42:26;16.80;99.90
39951;DHT22;25629;51.444;-2.606;2023-03-14T13:44:56;17.00;99.90
39951;DHT22;25629;51.444;-2.606;2023-03-14T13:47:24;17.00;99.90
39951;DHT22;25629;51.444;-2.606;2023-03-14T13:49:52;16.70;99.90
39951;DHT22;25629;51.444;-2.606;2023-03-14T13:52:35;16.80;99.90
39951;DHT22;25629;51.444;-2.606;2023-03-14T13:55:02;15.70;99.90
39951;DHT22;25629;51.444;-2.606;2023-03-14T13:57:46;14.50;99.90
39951;DHT22;25629;51.444;-2.606;2023-03-14T14:00:39;14.50;1.00
39951;DHT22;25629;51.444;-2.606;2023-03-14T14:03:10;15.00;1.00
39951;DHT22;25629;51.444;-2.606;2023-03-14T14:05:36;15.20;1.00
39951;DHT22;25629;51.444;-2.606;2023-03-14T14:08:05;15.40;1.00
39951;DHT22;25629;51.444;-2.606;2023-03-14T14:10:32;15.00;1.00
39951;DHT22;25629;51.444;-2.606;2023-03-14T14:13:03;14.50;1.00
39951;DHT22;25629;51.444;-2.606;2023-03-14T14:15:31;14.60;1.00
39951;DHT22;25629;51.444;-2.606;2023-03-14T14:18:04;15.10;1.00
39951;DHT22;25629;51.444;-2.606;2023-03-14T14:20:40;15.50;1.00
39951;DHT22;25629;51.444;-2.606;2023-03-14T14:23:27;15.40;1.00
39951;DHT22;25629;51.444;-2.606;2023-03-14T14:25:57;15.70;1.00
39951;DHT22;25629;51.444;-2.606;2023-03-14T14:28:34;16.10;1.00
39951;DHT22;25629;51.444;-2.606;2023-03-14T14:33:42;15.30;1.00
39951;DHT22;25629;51.444;-2.606;2023-03-14T14:36:22;14.70;1.00
39951;DHT22;25629;51.444;-2.606;2023-03-14T14:39:04;14.40;1.00
39951;DHT22;25629;51.444;-2.606;2023-03-14T14:41:34;14.30;1.00
39951;DHT22;25629;51.444;-2.606;2023-03-14T14:44:03;13.90;1.00
39951;DHT22;25629;51.444;-2.606;2023-03-14T14:46:31;13.70;99.90
39951;DHT22;25629;51.444;-2.606;2023-03-14T14:49:05;13.80;99.90
39951;DHT22;25629;51.444;-2.606;2023-03-14T14:51:38;12.90;99.90
39951;DHT22;25629;51.444;-2.606;2023-03-14T14:54:11;12.80;1.00
39951;DHT22;25629;51.444;-2.606;2023-03-14T14:56:38;12.40;99.90
39951;DHT22;25629;51.444;-2.606;2023-03-14T14:59:05;12.40;1.00
39951;DHT22;25629;51.444;-2.606;2023-03-14T15:01:42;12.20;99.90
39951;DHT22;25629;51.444;-2.606;2023-03-14T15:04:13;12.10;24.60
39951;DHT22;25629;51.444;-2.606;2023-03-14T15:06:42;12.40;92.10
39951;DHT22;25629;51.444;-2.606;2023-03-14T15:09:10;13.10;1.00
39951;DHT22;25629;51.444;-2.606;2023-03-14T15:11:36;13.20;99.90
39951;DHT22;25629;51.444;-2.606;2023-03-14T15:14:03;12.60;99.90
39951;DHT22;25629;51.444;-2.606;2023-03-14T15:16:29;12.00;99.90
39951;DHT22;25629;51.444;-2.606;2023-03-14T15:18:58;11.60;99.90
39951;DHT22;25629;51.444;-2.606;2023-03-14T15:21:25;11.90;99.90
39951;DHT22;25629;51.444;-2.606;2023-03-14T15:23:51;12.70;1.00
39951;DHT22;25629;51.444;-2.606;2023-03-14T15:26:19;13.10;1.00
39951;DHT22;25629;51.444;-2.606;2023-03-14T15:28:45;13.50;1.00
39951;DHT22;25629;51.444;-2.606;2023-03-14T15:31:13;13.70;1.00
39951;DHT22;25629;51.444;-2.606;2023-03-14T15:33:40;14.00;1.00
39951;DHT22;25629;51.444;-2.606;2023-03-14T15:36:06;14.30;1.00
39951;DHT22;25629;51.444;-2.606;2023-03-14T15:38:32;14.30;1.00
39951;DHT22;25629;51.444;-2.606;2023-03-14T15:40:58;14.50;1.00
39951;DHT22;25629;51.444;-2.606;2023-03-14T15:43:24;14.60;1.00
39951;DHT22;25629;51.444;-2.606;2023-03-14T15:45:49;14.30;1.00
39951;DHT22;25629;51.444;-2.606;2023-03-14T15:48:16;14.00;1.00
39951;DHT22;25629;51.444;-2.606;2023-03-14T15:50:43;14.10;1.00
39951;DHT22;25629;51.444;-2.606;2023-03-14T15:53:08;14.60;1.00
39951;DHT22;25629;51.444;-2.606;2023-03-14T15:55:34;14.70;1.00
39951;DHT22;25629;51.444;-2.606;2023-03-14T15:58:00;14.50;1.00
39951;DHT22;25629;51.444;-2.606;2023-03-14T16:00:29;14.40;1.00
39951;DHT22;25629;51.444;-2.606;2023-03-14T16:02:54;14.30;1.00
39951;DHT22;25629;51.444;-2.606;2023-03-14T16:05:20;14.60;1.00
39951;DHT22;25629;51.444;-2.606;2023-03-14T16:07:46;14.50;1.00
39951;DHT22;25629;51.444;-2.606;2023-03-14T16:10:13;14.00;1.00
39951;DHT22;25629;51.444;-2.606;2023-03-14T16:12:40;12.90;99.90
39951;DHT22;25629;51.444;-2.606;2023-03-14T16:15:06;12.10;99.90
39951;DHT22;25629;51.444;-2.606;2023-03-14T16:17:33;11.40;1.00
39951;DHT22;25629;51.444;-2.606;2023-03-14T16:19:59;11.20;1.00
39951;DHT22;25629;51.444;-2.606;2023-03-14T16:22:25;12.00;99.90
39951;DHT22;25629;51.444;-2.606;2023-03-14T16:24:51;12.80;72.80
39951;DHT22;25629;51.444;-2.606;2023-03-14T16:27:17;13.40;1.00
39951;DHT22;25629;51.444;-2.606;2023-03-14T16:29:43;13.40;1.00
39951;DHT22;25629;51.444;-2.606;2023-03-14T16:32:09;13.60;1.00
39951;DHT22;25629;51.444;-2.606;2023-03-14T16:34:37;14.00;1.00
39951;DHT22;25629;51.444;-2.606;2023-03-14T16:37:03;13.70;1.00
39951;DHT22;25629;51.444;-2.606;2023-03-14T16:39:29;13.50;1.00
39951;DHT22;25629;51.444;-2.606;2023-03-14T16:41:57;13.30;1.00
39951;DHT22;25629;51.444;-2.606;2023-03-14T16:44:22;12.90;1.00
39951;DHT22;25629;51.444;-2.606;2023-03-14T16:46:48;12.70;1.00
39951;DHT22;25629;51.444;-2.606;2023-03-14T16:49:14;12.90;1.00